Time;durP1;ratioP1;P1;durP2;ratioP2;P2;SDS_P1;SDS_P2;PMS_P1;PMS_P2;Temp;Humidity;BMP_temperature;BMP_pressure;BME280_temperature;BME280_humidity;BME280_pressure;Samples;Min_cycle;Max_cycle;Signal;HPM_P1;HPM_P2
2022/05/18 00:00:50;;;;;;;0.00;0.00;;;;;;;;;;5039876;28;20486;-87
2022/05/18 00:03:18;;;;;;;0.00;0.00;;;;;;;;;;5039462;28;20044;-86
2022/05/18 00:05:45;;;;;;;0.00;0.00;;;;;;;;;;5055734;28;20048;-86
2022/05/18 00:08:12;;;;;;;0.10;0.10;;;;;;;;;;5039423;28;20039;-86
2022/05/18 00:10:40;;;;;;;0.00;0.00;;;;;;;;;;5056007;28;20119;-86
2022/05/18 00:13:06;;;;;;;0.10;0.10;;;;;;;;;;5038806;28;20036;-86
2022/05/18 00:15:34;;;;;;;0.08;0.08;;;;;;;;;;5022946;28;20075;-86
2022/05/18 00:18:01;;;;;;;0.00;0.00;;;;;;;;;;5039769;28;20052;-86
2022/05/18 00:20:27;;;;;;;0.10;0.10;;;;;;;;;;5039216;28;20089;-85
2022/05/18 00:22:59;;;;;;;0.00;0.00;;;;;;;;;;5056031;28;20504;-86
2022/05/18 00:25:28;;;;;;;0.10;0.10;;;;;;;;;;5055828;28;20055;-86
2022/05/18 00:27:56;;;;;;;0.00;0.00;;;;;;;;;;5039170;28;20036;-86
2022/05/18 00:30:23;;;;;;;0.10;0.10;;;;;;;;;;5039461;28;20044;-85
2022/05/18 00:32:50;;;;;;;0.10;0.10;;;;;;;;;;5056168;28;20041;-86
2022/05/18 00:35:17;;;;;;;0.00;0.00;;;;;;;;;;5056113;28;20049;-86
2022/05/18 00:37:44;;;;;;;0.10;0.10;;;;;;;;;;5040222;28;20416;-86
2022/05/18 00:40:13;;;;;;;0.05;0.05;;;;;;;;;;5043349;28;20496;-85
2022/05/18 00:42:40;;;;;;;0.00;0.00;;;;;;;;;;5043104;28;20146;-85
2022/05/18 00:45:06;;;;;;;0.00;0.00;;;;;;;;;;5043136;28;20127;-85
2022/05/18 00:47:35;;;;;;;0.00;0.00;;;;;;;;;;5042939;28;20037;-86
2022/05/18 00:50:04;;;;;;;0.00;0.00;;;;;;;;;;5043108;28;20194;-85
2022/05/18 00:52:36;;;;;;;0.10;0.10;;;;;;;;;;5026464;28;20156;-85
2022/05/18 00:55:03;;;;;;;0.00;0.00;;;;;;;;;;5060077;28;20052;-87
2022/05/18 00:57:42;;;;;;;0.00;0.00;;;;;;;;;;5042701;28;20278;-86
2022/05/18 01:00:09;;;;;;;0.10;0.10;;;;;;;;;;5043041;28;20060;-85
2022/05/18 01:02:37;;;;;;;0.10;0.10;;;;;;;;;;5042682;28;20044;-85
2022/05/18 01:05:05;;;;;;;0.03;0.03;;;;;;;;;;5026820;28;20401;-86
2022/05/18 01:07:33;;;;;;;0.10;0.10;;;;;;;;;;5042632;28;20064;-86
2022/05/18 01:09:59;;;;;;;0.08;0.08;;;;;;;;;;5042835;28;20578;-86
2022/05/18 01:12:25;;;;;;;0.00;0.00;;;;;;;;;;5042216;28;20074;-86
2022/05/18 01:14:56;;;;;;;0.10;0.10;;;;;;;;;;5059705;28;20036;-85
2022/05/18 01:17:28;;;;;;;0.00;0.00;;;;;;;;;;5042838;28;20118;-86
2022/05/18 01:19:54;;;;;;;0.10;0.10;;;;;;;;;;5042911;28;20068;-86
2022/05/18 01:22:20;;;;;;;0.00;0.00;;;;;;;;;;5060826;28;20037;-86
2022/05/18 01:24:54;;;;;;;0.10;0.10;;;;;;;;;;5042850;28;20071;-85
2022/05/18 01:27:20;;;;;;;0.00;0.00;;;;;;;;;;5042740;28;20115;-86
2022/05/18 01:29:46;;;;;;;0.00;0.00;;;;;;;;;;5043803;28;20528;-84
2022/05/18 01:32:14;;;;;;;0.00;0.00;;;;;;;;;;5043603;28;20482;-86
2022/05/18 01:34:42;;;;;;;0.10;0.10;;;;;;;;;;5042386;28;20041;-87
2022/05/18 01:37:09;;;;;;;0.20;0.20;;;;;;;;;;5042385;28;20039;-86
2022/05/18 01:39:50;;;;;;;0.10;0.10;;;;;;;;;;5042373;28;20044;-85
2022/05/18 01:42:36;;;;;;;0.03;0.03;;;;;;;;;;5042715;28;20234;-86
2022/05/18 01:45:06;;;;;;;0.10;0.10;;;;;;;;;;5042138;28;20044;-86
2022/05/18 01:47:32;;;;;;;0.10;0.10;;;;;;;;;;5058924;28;20127;-85
2022/05/18 01:49:59;;;;;;;0.00;0.00;;;;;;;;;;5058406;28;20048;-86
2022/05/18 01:52:27;;;;;;;0.05;0.05;;;;;;;;;;5041133;28;20044;-85
2022/05/18 01:54:52;;;;;;;0.10;0.10;;;;;;;;;;5041399;28;20446;-83
2022/05/18 01:57:19;;;;;;;0.00;0.00;;;;;;;;;;5057553;28;20049;-86
2022/05/18 01:59:44;;;;;;;0.10;0.10;;;;;;;;;;5040875;28;20073;-85
2022/05/18 02:02:12;;;;;;;0.10;0.10;;;;;;;;;;5057678;28;20040;-86
2022/05/18 02:04:39;;;;;;;0.10;0.10;;;;;;;;;;5041383;28;20040;-85
2022/05/18 02:07:05;;;;;;;0.10;0.10;;;;;;;;;;5041522;28;20098;-86
2022/05/18 02:09:31;;;;;;;0.05;0.05;;;;;;;;;;5057954;28;20496;-86
2022/05/18 02:11:57;;;;;;;0.00;0.00;;;;;;;;;;5058143;28;20059;-85
2022/05/18 02:14:25;;;;;;;0.00;0.00;;;;;;;;;;5025023;28;20082;-86
2022/05/18 02:16:51;;;;;;;0.00;0.00;;;;;;;;;;5041371;28;20044;-86
2022/05/18 02:19:21;;;;;;;0.00;0.00;;;;;;;;;;5058496;28;20045;-85
2022/05/18 02:21:50;;;;;;;0.17;0.17;;;;;;;;;;5058316;28;20043;-85
2022/05/18 02:24:18;;;;;;;0.10;0.10;;;;;;;;;;5041822;28;20048;-86
2022/05/18 02:26:45;;;;;;;0.10;0.10;;;;;;;;;;5057440;28;20052;-85
2022/05/18 02:29:11;;;;;;;0.10;0.10;;;;;;;;;;5040991;28;20094;-83
2022/05/18 02:31:38;;;;;;;0.10;0.10;;;;;;;;;;5024628;28;20047;-84
2022/05/18 02:34:05;;;;;;;0.28;0.28;;;;;;;;;;5040828;28;20041;-86
2022/05/18 02:36:31;;;;;;;0.10;0.10;;;;;;;;;;5056929;28;20041;-86
2022/05/18 02:38:57;;;;;;;0.00;0.00;;;;;;;;;;5040631;28;20044;-85
2022/05/18 02:41:23;;;;;;;0.00;0.00;;;;;;;;;;5040570;28;20051;-85
2022/05/18 02:43:51;;;;;;;0.00;0.00;;;;;;;;;;5024328;28;20040;-85
2022/05/18 02:46:19;;;;;;;0.00;0.00;;;;;;;;;;5040160;28;20048;-86
2022/05/18 02:48:46;;;;;;;0.10;0.10;;;;;;;;;;5040605;28;20047;-86
2022/05/18 02:51:12;;;;;;;0.10;0.10;;;;;;;;;;5040520;28;20048;-86
2022/05/18 02:53:38;;;;;;;0.10;0.10;;;;;;;;;;5057238;28;20397;-86
2022/05/18 02:56:06;;;;;;;0.10;0.10;;;;;;;;;;5040392;28;20040;-85
2022/05/18 02:58:32;;;;;;;0.10;0.10;;;;;;;;;;5040374;28;20036;-85
2022/05/18 03:00:59;;;;;;;0.10;0.10;;;;;;;;;;5039544;28;20044;-85
2022/05/18 03:03:25;;;;;;;0.20;0.20;;;;;;;;;;5056865;28;20464;-86
2022/05/18 03:05:51;;;;;;;0.00;0.00;;;;;;;;;;5039958;28;20101;-85
2022/05/18 03:08:17;;;;;;;0.00;0.00;;;;;;;;;;5056616;28;20040;-85
2022/05/18 03:10:43;;;;;;;0.00;0.00;;;;;;;;;;5040430;28;20036;-84
2022/05/18 03:13:10;;;;;;;0.10;0.10;;;;;;;;;;5057293;28;20500;-85
2022/05/18 03:15:36;;;;;;;0.10;0.10;;;;;;;;;;5040004;28;20048;-86
2022/05/18 03:18:03;;;;;;;0.10;0.10;;;;;;;;;;5040143;28;20045;-86
2022/05/18 03:26:09;;;;;;;0.13;0.13;;;;;;;;;;5056674;28;20497;-86
2022/05/18 03:28:36;;;;;;;0.20;0.20;;;;;;;;;;5040202;28;20405;-85
2022/05/18 03:31:03;;;;;;;0.00;0.00;;;;;;;;;;5040355;28;20037;-86
2022/05/18 03:33:29;;;;;;;0.00;0.00;;;;;;;;;;5023697;28;20409;-85
2022/05/18 03:35:55;;;;;;;0.10;0.10;;;;;;;;;;5039545;28;20113;-86
2022/05/18 03:38:21;;;;;;;0.00;0.00;;;;;;;;;;5040002;28;20485;-86
2022/05/18 03:40:47;;;;;;;0.10;0.10;;;;;;;;;;5039647;28;20040;-86
2022/05/18 03:43:14;;;;;;;0.00;0.00;;;;;;;;;;5039964;28;20127;-86
2022/05/18 03:45:40;;;;;;;0.00;0.00;;;;;;;;;;5056073;28;20075;-86
2022/05/18 03:48:07;;;;;;;0.00;0.00;;;;;;;;;;5039978;28;20036;-85
2022/05/18 03:50:37;;;;;;;0.00;0.00;;;;;;;;;;5039768;28;20093;-86
2022/05/18 03:53:04;;;;;;;0.00;0.00;;;;;;;;;;5039908;28;20393;-86
2022/05/18 03:55:30;;;;;;;0.10;0.10;;;;;;;;;;5039886;28;20481;-85
2022/05/18 03:57:56;;;;;;;0.08;0.08;;;;;;;;;;5039318;28;20044;-85
2022/05/18 04:00:23;;;;;;;0.00;0.00;;;;;;;;;;5039426;28;20548;-86
2022/05/18 04:02:49;;;;;;;0.10;0.10;;;;;;;;;;5038136;28;20508;-86
2022/05/18 04:05:16;;;;;;;0.00;0.00;;;;;;;;;;5039222;28;20055;-85
2022/05/18 04:07:42;;;;;;;0.10;0.10;;;;;;;;;;5039221;28;20178;-85
2022/05/18 04:10:09;;;;;;;0.00;0.00;;;;;;;;;;5022257;28;20119;-85
2022/05/18 04:12:38;;;;;;;0.10;0.10;;;;;;;;;;5038516;28;20052;-86
2022/05/18 04:15:04;;;;;;;0.05;0.05;;;;;;;;;;5039513;28;20056;-86
2022/05/18 04:17:36;;;;;;;0.10;0.10;;;;;;;;;;5039140;28;20127;-85
2022/05/18 04:20:04;;;;;;;0.10;0.10;;;;;;;;;;5038583;28;20052;-84
2022/05/18 04:22:30;;;;;;;0.10;0.10;;;;;;;;;;5022195;28;20043;-83
2022/05/18 04:25:01;;;;;;;0.10;0.10;;;;;;;;;;5021938;28;20101;-87
2022/05/18 04:27:27;;;;;;;0.00;0.00;;;;;;;;;;5039059;28;20045;-85
2022/05/18 04:29:55;;;;;;;0.10;0.10;;;;;;;;;;5055539;28;20533;-86
2022/05/18 04:32:21;;;;;;;0.00;0.00;;;;;;;;;;5038595;28;20040;-85
2022/05/18 04:34:48;;;;;;;0.10;0.10;;;;;;;;;;5038412;28;20037;-85
2022/05/18 04:37:15;;;;;;;0.10;0.10;;;;;;;;;;5038754;28;20041;-87
2022/05/18 04:39:41;;;;;;;0.00;0.00;;;;;;;;;;5055620;28;20363;-86
2022/05/18 04:42:08;;;;;;;0.10;0.10;;;;;;;;;;5038744;28;20067;-85
2022/05/18 04:44:34;;;;;;;0.00;0.00;;;;;;;;;;5038932;28;20123;-86
2022/05/18 04:47:00;;;;;;;0.10;0.10;;;;;;;;;;5038301;28;20405;-86
2022/05/18 04:49:28;;;;;;;0.10;0.10;;;;;;;;;;5038220;28;20033;-86
2022/05/18 04:51:54;;;;;;;0.10;0.10;;;;;;;;;;5038265;28;20386;-86
2022/05/18 04:54:20;;;;;;;0.10;0.10;;;;;;;;;;5038465;28;20032;-84
2022/05/18 04:56:46;;;;;;;0.08;0.08;;;;;;;;;;5038265;28;20056;-85
2022/05/18 04:59:12;;;;;;;0.10;0.10;;;;;;;;;;5038401;28;20147;-87
2022/05/18 05:01:39;;;;;;;0.08;0.08;;;;;;;;;;5039269;28;20043;-86
2022/05/18 05:04:13;;;;;;;0.10;0.10;;;;;;;;;;5038283;28;20036;-85
2022/05/18 05:06:46;;;;;;;0.10;0.10;;;;;;;;;;5037839;28;20478;-86
2022/05/18 05:09:13;;;;;;;0.10;0.10;;;;;;;;;;5038223;28;20044;-85
2022/05/18 05:11:39;;;;;;;0.10;0.10;;;;;;;;;;5038654;28;20033;-85
2022/05/18 05:14:05;;;;;;;0.10;0.10;;;;;;;;;;5038223;28;20127;-84
2022/05/18 05:16:32;;;;;;;0.10;0.10;;;;;;;;;;5038015;28;20036;-85
2022/05/18 05:18:59;;;;;;;0.00;0.00;;;;;;;;;;5055113;28;20051;-85
2022/05/18 05:21:25;;;;;;;0.00;0.00;;;;;;;;;;5038388;28;20123;-85
2022/05/18 05:23:51;;;;;;;0.00;0.00;;;;;;;;;;5039271;28;20045;-85
2022/05/18 05:26:18;;;;;;;0.10;0.10;;;;;;;;;;5041253;28;20044;-85
2022/05/18 05:28:44;;;;;;;0.00;0.00;;;;;;;;;;5038489;28;20516;-84
2022/05/18 05:31:13;;;;;;;0.10;0.10;;;;;;;;;;5033041;28;20040;-87
2022/05/18 05:33:40;;;;;;;0.10;0.10;;;;;;;;;;5056662;28;20117;-88
2022/05/18 05:36:07;;;;;;;0.00;0.00;;;;;;;;;;5057495;28;20037;-83
2022/05/18 05:38:33;;;;;;;0.00;0.00;;;;;;;;;;5040724;28;20119;-85
2022/05/18 05:41:00;;;;;;;0.00;0.00;;;;;;;;;;5041074;28;20048;-86
2022/05/18 05:43:26;;;;;;;0.00;0.00;;;;;;;;;;5041034;28;20105;-86
2022/05/18 05:45:57;;;;;;;0.00;0.00;;;;;;;;;;5040822;28;20051;-84
2022/05/18 05:48:23;;;;;;;0.10;0.10;;;;;;;;;;5040837;28;20115;-85
2022/05/18 05:50:49;;;;;;;0.00;0.00;;;;;;;;;;5040523;28;20123;-84
2022/05/18 05:53:15;;;;;;;0.08;0.08;;;;;;;;;;5057626;28;20040;-86
2022/05/18 05:55:41;;;;;;;0.10;0.10;;;;;;;;;;5040476;28;20346;-85
2022/05/18 05:58:07;;;;;;;0.10;0.10;;;;;;;;;;5041090;28;20086;-86
2022/05/18 06:00:33;;;;;;;0.10;0.10;;;;;;;;;;5034935;28;20048;-86
2022/05/18 06:02:59;;;;;;;0.10;0.10;;;;;;;;;;5034109;28;20075;-85
2022/05/18 06:05:25;;;;;;;0.10;0.10;;;;;;;;;;5030401;28;20056;-86
2022/05/18 06:07:51;;;;;;;0.10;0.10;;;;;;;;;;5028412;28;20037;-85
2022/05/18 06:10:20;;;;;;;0.13;0.13;;;;;;;;;;5039678;28;20032;-87
2022/05/18 06:12:46;;;;;;;0.10;0.10;;;;;;;;;;5041167;28;20044;-87
2022/05/18 06:15:12;;;;;;;0.10;0.10;;;;;;;;;;5040959;28;20494;-85
2022/05/18 06:17:38;;;;;;;0.10;0.10;;;;;;;;;;5037227;28;20048;-85
2022/05/18 06:20:04;;;;;;;0.00;0.00;;;;;;;;;;5036068;28;20731;-85
2022/05/18 06:22:30;;;;;;;0.10;0.10;;;;;;;;;;5040349;28;20045;-86
2022/05/18 06:24:56;;;;;;;0.00;0.00;;;;;;;;;;5044752;28;20129;-90
2022/05/18 06:27:22;;;;;;;0.10;0.10;;;;;;;;;;5063510;28;20551;-90
2022/05/18 06:29:48;;;;;;;0.00;0.00;;;;;;;;;;5044555;28;20421;-88
2022/05/18 06:32:15;;;;;;;0.10;0.10;;;;;;;;;;5047338;28;20037;-90
2022/05/18 06:34:41;;;;;;;0.00;0.00;;;;;;;;;;5044869;28;20043;-88
2022/05/18 06:37:07;;;;;;;0.10;0.10;;;;;;;;;;5044016;28;20040;-89
2022/05/18 06:39:33;;;;;;;0.10;0.10;;;;;;;;;;5059928;28;20044;-88
2022/05/18 06:42:00;;;;;;;0.00;0.00;;;;;;;;;;5041521;28;20072;-87
2022/05/18 06:44:26;;;;;;;0.00;0.00;;;;;;;;;;5042771;28;20413;-90
2022/05/18 06:46:52;;;;;;;0.00;0.00;;;;;;;;;;5045327;28;20044;-91
2022/05/18 06:49:19;;;;;;;0.13;0.13;;;;;;;;;;5043700;28;20059;-88
2022/05/18 06:51:46;;;;;;;0.00;0.00;;;;;;;;;;5046669;28;20037;-92
2022/05/18 06:54:12;;;;;;;0.10;0.10;;;;;;;;;;5045611;28;20037;-90
2022/05/18 06:56:42;;;;;;;0.00;0.00;;;;;;;;;;5026729;28;20041;-90
2022/05/18 06:59:08;;;;;;;0.10;0.10;;;;;;;;;;5023787;28;20037;-85
2022/05/18 07:01:36;;;;;;;0.00;0.00;;;;;;;;;;5020871;28;20063;-87
2022/05/18 07:04:03;;;;;;;0.10;0.10;;;;;;;;;;5052494;28;20485;-85
2022/05/18 07:06:31;;;;;;;0.10;0.10;;;;;;;;;;5050632;28;20123;-85
2022/05/18 07:08:57;;;;;;;0.10;0.10;;;;;;;;;;5038367;28;20036;-83
2022/05/18 07:11:23;;;;;;;0.10;0.10;;;;;;;;;;5022156;28;20378;-83
2022/05/18 07:13:54;;;;;;;0.10;0.10;;;;;;;;;;5040492;28;20401;-84
2022/05/18 07:16:24;;;;;;;0.00;0.00;;;;;;;;;;5041308;28;20046;-88
2022/05/18 07:18:50;;;;;;;0.00;0.00;;;;;;;;;;5058081;28;20440;-88
2022/05/18 07:21:16;;;;;;;0.10;0.10;;;;;;;;;;5042191;28;20044;-89
2022/05/18 07:23:43;;;;;;;0.00;0.00;;;;;;;;;;5042922;28;20101;-89
2022/05/18 07:26:09;;;;;;;0.08;0.08;;;;;;;;;;5060649;28;20127;-87
2022/05/18 07:28:35;;;;;;;0.00;0.00;;;;;;;;;;5058040;28;20041;-85
2022/05/18 07:31:01;;;;;;;0.00;0.00;;;;;;;;;;5057580;28;20089;-86
2022/05/18 07:33:27;;;;;;;0.00;0.00;;;;;;;;;;5057580;28;20119;-87
2022/05/18 07:35:54;;;;;;;0.00;0.00;;;;;;;;;;5041955;28;20409;-88
2022/05/18 07:38:22;;;;;;;0.05;0.05;;;;;;;;;;5023069;28;20148;-89
2022/05/18 07:40:48;;;;;;;0.10;0.10;;;;;;;;;;5039657;28;20040;-90
2022/05/18 07:43:14;;;;;;;0.10;0.10;;;;;;;;;;5055764;28;20062;-89
2022/05/18 07:45:41;;;;;;;0.00;0.00;;;;;;;;;;5039374;28;20044;-92
2022/05/18 07:48:07;;;;;;;0.00;0.00;;;;;;;;;;5040076;28;20036;-89
2022/05/18 07:50:33;;;;;;;0.00;0.00;;;;;;;;;;5037758;28;20605;-84
2022/05/18 07:52:59;;;;;;;0.10;0.10;;;;;;;;;;5039449;28;20073;-87
2022/05/18 07:55:26;;;;;;;0.08;0.08;;;;;;;;;;5022688;28;20044;-88
2022/05/18 07:57:53;;;;;;;0.40;0.38;;;;;;;;;;5019150;28;20041;-84
2022/05/18 08:00:21;;;;;;;0.00;0.00;;;;;;;;;;5054351;28;20041;-86
2022/05/18 08:02:48;;;;;;;0.00;0.00;;;;;;;;;;5052396;28;20482;-86
2022/05/18 08:05:14;;;;;;;0.10;0.10;;;;;;;;;;5039526;28;20040;-84
2022/05/18 08:08:05;;;;;;;0.00;0.00;;;;;;;;;;5025836;28;20041;-88
2022/05/18 08:16:20;;;;;;;0.10;0.10;;;;;;;;;;4975693;28;20042;-84
2022/05/18 08:18:47;;;;;;;0.00;0.00;;;;;;;;;;5007220;28;20413;-86
2022/05/18 08:21:14;;;;;;;0.10;0.10;;;;;;;;;;5035378;28;20048;-87
2022/05/18 08:23:43;;;;;;;0.10;0.10;;;;;;;;;;5055103;28;20412;-88
2022/05/18 08:26:09;;;;;;;0.10;0.10;;;;;;;;;;5038121;28;20044;-92
2022/05/18 08:28:36;;;;;;;0.00;0.00;;;;;;;;;;5038302;28;20075;-89
2022/05/18 08:31:03;;;;;;;0.00;0.00;;;;;;;;;;5054899;28;20037;-93
2022/05/18 08:33:31;;;;;;;0.00;0.00;;;;;;;;;;5041227;28;20044;-89
2022/05/18 08:35:59;;;;;;;0.03;0.03;;;;;;;;;;5060761;28;20036;-93
2022/05/18 08:38:25;;;;;;;0.10;0.10;;;;;;;;;;5039092;28;20051;-90
2022/05/18 08:40:54;;;;;;;0.00;0.00;;;;;;;;;;5038308;28;20040;-90
2022/05/18 08:43:26;;;;;;;0.00;0.00;;;;;;;;;;5038560;28;20093;-91
2022/05/18 08:45:59;;;;;;;0.00;0.00;;;;;;;;;;5038004;28;20037;-89
2022/05/18 08:48:31;;;;;;;0.00;0.00;;;;;;;;;;5038513;28;20037;-91
2022/05/18 08:51:02;;;;;;;0.00;0.00;;;;;;;;;;5038709;28;20508;-89
2022/05/18 08:53:32;;;;;;;0.10;0.10;;;;;;;;;;5041187;28;20028;-92
2022/05/18 08:56:17;;;;;;;0.10;0.10;;;;;;;;;;5055449;28;20058;-92
2022/05/18 08:58:43;;;;;;;;;;;;;;;;;;5039830;28;20044;-94
2022/05/18 09:01:14;;;;;;;0.00;0.00;;;;;;;;;;5042012;28;20055;-92
2022/05/18 09:03:45;;;;;;;0.10;0.10;;;;;;;;;;5042409;28;20136;-94
2022/05/18 09:06:24;;;;;;;0.00;0.00;;;;;;;;;;5042110;28;20520;-90
2022/05/18 09:11:45;;;;;;;0.00;0.00;;;;;;;;;;5058291;28;20094;-91
2022/05/18 09:14:11;;;;;;;0.00;0.00;;;;;;;;;;5042310;28;20119;-91
2022/05/18 09:16:46;;;;;;;0.10;0.10;;;;;;;;;;5041456;28;20528;-87
2022/05/18 09:19:21;;;;;;;0.00;0.00;;;;;;;;;;5041989;28;20050;-92
2022/05/18 09:22:08;;;;;;;0.03;0.03;;;;;;;;;;5050001;28;20036;-94
2022/05/18 09:24:35;;;;;;;0.13;0.13;;;;;;;;;;5058092;28;20049;-89
2022/05/18 09:27:31;;;;;;;0.10;0.10;;;;;;;;;;5043056;28;20047;-90
2022/05/18 09:29:57;;;;;;;0.03;0.03;;;;;;;;;;5036967;28;20044;-90
2022/05/18 09:32:41;;;;;;;0.10;0.10;;;;;;;;;;5057681;28;20543;-88
2022/05/18 09:35:07;;;;;;;;;;;;;;;;;;5041716;28;20059;-90
2022/05/18 09:37:38;;;;;;;0.10;0.10;;;;;;;;;;5057916;28;20381;-90
2022/05/18 09:40:12;;;;;;;0.00;0.00;;;;;;;;;;5041414;28;20517;-92
2022/05/18 09:42:41;;;;;;;0.00;0.00;;;;;;;;;;5043114;28;20177;-88
2022/05/18 09:45:13;;;;;;;0.10;0.10;;;;;;;;;;5046349;28;20047;-88
2022/05/18 09:47:48;;;;;;;0.55;0.55;;;;;;;;;;5064068;28;20032;-89
2022/05/18 09:50:14;;;;;;;0.00;0.00;;;;;;;;;;5046873;28;20043;-89
2022/05/18 09:52:41;;;;;;;0.00;0.00;;;;;;;;;;5045732;28;20133;-88
2022/05/18 09:55:10;;;;;;;0.00;0.00;;;;;;;;;;5035292;28;20045;-88
2022/05/18 09:57:46;;;;;;;0.10;0.10;;;;;;;;;;5033837;28;20036;-85
2022/05/18 10:00:22;;;;;;;0.08;0.08;;;;;;;;;;5041934;28;20115;-85
2022/05/18 10:08:29;;;;;;;0.00;0.00;;;;;;;;;;5043425;28;20045;-90
2022/05/18 10:10:56;;;;;;;0.10;0.10;;;;;;;;;;5039296;28;20167;-95
2022/05/18 10:13:25;;;;;;;0.00;0.00;;;;;;;;;;5040599;28;20072;-91
2022/05/18 10:16:03;;;;;;;0.10;0.10;;;;;;;;;;5041088;28;20036;-93
2022/05/18 10:18:41;;;;;;;1.05;0.95;;;;;;;;;;5042169;28;20044;-93
2022/05/18 10:21:12;;;;;;;0.00;0.00;;;;;;;;;;5041087;28;20084;-91
2022/05/18 10:23:45;;;;;;;0.00;0.00;;;;;;;;;;5040889;28;20500;-92
2022/05/18 10:26:20;;;;;;;0.10;0.10;;;;;;;;;;5025469;28;20048;-91
2022/05/18 10:28:46;;;;;;;;;;;;;;;;;;5037823;28;20498;-88
2022/05/18 10:31:22;;;;;;;0.00;0.00;;;;;;;;;;5055685;28;19922;-87
2022/05/18 10:33:49;;;;;;;0.10;0.10;;;;;;;;;;5041030;28;20032;-89
2022/05/18 10:36:23;;;;;;;0.10;0.10;;;;;;;;;;5057411;28;20425;-94
2022/05/18 10:38:54;;;;;;;0.00;0.00;;;;;;;;;;5038261;28;20516;-93
2022/05/18 10:41:26;;;;;;;0.00;0.00;;;;;;;;;;5039766;28;20291;-94
2022/05/18 10:43:55;;;;;;;0.10;0.10;;;;;;;;;;5043918;28;20040;-92
2022/05/18 10:46:39;;;;;;;0.00;0.00;;;;;;;;;;5042317;28;20037;-92
2022/05/18 10:49:08;;;;;;;0.00;0.00;;;;;;;;;;5042635;28;20215;-94
2022/05/18 10:51:43;;;;;;;0.10;0.10;;;;;;;;;;5042175;28;20076;-91
2022/05/18 10:54:15;;;;;;;0.10;0.10;;;;;;;;;;5041733;28;20032;-91
2022/05/18 10:56:42;;;;;;;1.85;1.75;;;;;;;;;;5040331;28;20044;-88
2022/05/18 10:59:32;;;;;;;0.00;0.00;;;;;;;;;;5042632;28;20040;-88
2022/05/18 11:02:20;;;;;;;0.10;0.10;;;;;;;;;;5039412;28;20056;-91
2022/05/18 11:04:51;;;;;;;0.03;0.03;;;;;;;;;;5028683;28;20575;-91
2022/05/18 11:07:18;;;;;;;0.10;0.10;;;;;;;;;;5019908;28;20048;-92
2022/05/18 11:09:44;;;;;;;0.00;0.00;;;;;;;;;;5020153;28;20072;-90
2022/05/18 11:12:21;;;;;;;0.00;0.00;;;;;;;;;;5039204;28;20043;-90
2022/05/18 11:14:47;;;;;;;0.10;0.10;;;;;;;;;;5040817;28;20045;-91
2022/05/18 11:17:28;;;;;;;0.10;0.10;;;;;;;;;;5036673;28;20397;-91
2022/05/18 11:20:11;;;;;;;0.10;0.10;;;;;;;;;;5029274;28;20041;-85
2022/05/18 11:23:00;;;;;;;0.05;0.05;;;;;;;;;;5031455;28;20045;-88
2022/05/18 11:25:29;;;;;;;0.00;0.00;;;;;;;;;;5039718;28;20186;-91
2022/05/18 11:28:01;;;;;;;0.45;0.45;;;;;;;;;;5041263;28;20048;-92
2022/05/18 11:30:32;;;;;;;0.10;0.10;;;;;;;;;;5042172;28;20040;-88
2022/05/18 11:33:12;;;;;;;0.00;0.00;;;;;;;;;;5040680;28;20045;-87
2022/05/18 11:35:38;;;;;;;0.00;0.00;;;;;;;;;;5041075;28;20044;-86
2022/05/18 11:38:04;;;;;;;0.03;0.03;;;;;;;;;;5037117;28;20036;-88
2022/05/18 11:40:37;;;;;;;0.00;0.00;;;;;;;;;;5034611;28;20493;-87
2022/05/18 11:43:30;;;;;;;0.00;0.00;;;;;;;;;;5050424;28;20516;-84
2022/05/18 11:46:11;;;;;;;0.00;0.00;;;;;;;;;;5043850;28;20048;-89
2022/05/18 11:48:52;;;;;;;0.10;0.10;;;;;;;;;;5043459;28;20043;-93
2022/05/18 11:51:27;;;;;;;0.10;0.10;;;;;;;;;;5041264;28;20044;-93
2022/05/18 11:54:01;;;;;;;0.10;0.10;;;;;;;;;;5038957;28;20375;-90
2022/05/18 11:56:34;;;;;;;0.00;0.00;;;;;;;;;;5056218;28;20048;-90
2022/05/18 11:59:29;;;;;;;0.00;0.00;;;;;;;;;;5040792;28;20095;-85
2022/05/18 12:02:10;;;;;;;0.00;0.00;;;;;;;;;;5040060;28;20155;-88
2022/05/18 12:04:54;;;;;;;0.00;0.00;;;;;;;;;;5041414;28;20052;-89
2022/05/18 12:07:35;;;;;;;0.20;0.20;;;;;;;;;;5019186;28;20041;-93
2022/05/18 12:13:31;;;;;;;0.00;0.00;;;;;;;;;;5066832;28;20028;-87
2022/05/18 12:16:08;;;;;;;0.00;0.00;;;;;;;;;;5026306;28;20044;-90
2022/05/18 12:18:47;;;;;;;0.03;0.03;;;;;;;;;;5044625;28;20051;-95
2022/05/18 12:21:22;;;;;;;0.00;0.00;;;;;;;;;;5027720;28;20080;-88
2022/05/18 12:23:50;;;;;;;0.10;0.10;;;;;;;;;;5038853;28;20044;-92
2022/05/18 12:26:17;;;;;;;0.10;0.10;;;;;;;;;;5041708;28;20040;-89
2022/05/18 12:28:44;;;;;;;0.08;0.08;;;;;;;;;;5042501;28;20047;-88
2022/05/18 12:31:10;;;;;;;0.00;0.00;;;;;;;;;;5040899;28;20170;-87
2022/05/18 12:33:43;;;;;;;0.10;0.10;;;;;;;;;;5060024;28;20041;-87
2022/05/18 12:36:23;;;;;;;0.08;0.08;;;;;;;;;;5040105;28;20507;-92
2022/05/18 12:39:08;;;;;;;0.00;0.00;;;;;;;;;;5021938;28;20047;-94
2022/05/18 12:41:37;;;;;;;0.10;0.10;;;;;;;;;;5039661;28;20043;-90
2022/05/18 12:44:11;;;;;;;0.00;0.00;;;;;;;;;;5039338;28;20102;-93
2022/05/18 12:46:42;;;;;;;0.10;0.10;;;;;;;;;;5040744;28;20477;-92
2022/05/18 12:49:12;;;;;;;0.00;0.00;;;;;;;;;;5039201;28;20060;-92
2022/05/18 12:51:53;;;;;;;0.10;0.10;;;;;;;;;;5056337;28;20048;-88
2022/05/18 12:54:22;;;;;;;0.00;0.00;;;;;;;;;;5039857;28;20071;-87
2022/05/18 12:56:48;;;;;;;0.00;0.00;;;;;;;;;;5038491;28;20036;-87
2022/05/18 12:59:19;;;;;;;0.00;0.00;;;;;;;;;;5053082;28;20047;-87
2022/05/18 13:01:46;;;;;;;0.05;0.05;;;;;;;;;;5023434;28;20044;-84
2022/05/18 13:04:15;;;;;;;0.00;0.00;;;;;;;;;;5038175;28;20858;-86
2022/05/18 13:07:00;;;;;;;0.00;0.00;;;;;;;;;;5030636;28;20037;-91
2022/05/18 13:09:33;;;;;;;0.10;0.10;;;;;;;;;;5034769;28;20048;-92
2022/05/18 13:12:03;;;;;;;0.10;0.10;;;;;;;;;;5018239;28;20121;-89
2022/05/18 13:14:35;;;;;;;0.00;0.00;;;;;;;;;;5018576;28;20047;-88
2022/05/18 13:17:06;;;;;;;0.10;0.10;;;;;;;;;;5018060;28;20147;-89
2022/05/18 13:19:34;;;;;;;0.10;0.10;;;;;;;;;;5018101;28;20051;-88
2022/05/18 13:22:24;;;;;;;0.00;0.00;;;;;;;;;;5035241;28;20088;-89
2022/05/18 13:24:53;;;;;;;0.00;0.00;;;;;;;;;;5029959;28;20079;-86
2022/05/18 13:27:41;;;;;;;0.00;0.00;;;;;;;;;;5037584;28;20079;-87
2022/05/18 13:30:10;;;;;;;0.00;0.00;;;;;;;;;;5054744;28;20131;-87
2022/05/18 13:32:37;;;;;;;0.00;0.00;;;;;;;;;;5041232;28;20072;-86
2022/05/18 13:35:06;;;;;;;0.05;0.05;;;;;;;;;;5040241;28;20100;-86
2022/05/18 13:37:32;;;;;;;0.00;0.00;;;;;;;;;;5040641;28;20041;-88
2022/05/18 13:40:00;;;;;;;0.00;0.00;;;;;;;;;;5025149;28;20040;-87
2022/05/18 13:42:28;;;;;;;0.00;0.00;;;;;;;;;;5058631;28;20041;-88
2022/05/18 13:44:57;;;;;;;0.00;0.00;;;;;;;;;;5045048;28;20064;-88
2022/05/18 13:47:25;;;;;;;0.10;0.10;;;;;;;;;;5047891;28;20041;-89
2022/05/18 13:49:53;;;;;;;0.10;0.10;;;;;;;;;;5046585;28;20412;-86
2022/05/18 13:52:24;;;;;;;0.10;0.10;;;;;;;;;;5061158;28;20037;-87
2022/05/18 13:54:53;;;;;;;0.10;0.10;;;;;;;;;;5060029;28;20055;-88
2022/05/18 13:57:20;;;;;;;0.10;0.10;;;;;;;;;;5027068;28;20132;-90
2022/05/18 13:59:57;;;;;;;0.00;0.00;;;;;;;;;;5044358;28;20051;-88
2022/05/18 14:02:32;;;;;;;0.03;0.03;;;;;;;;;;5043386;28;20048;-87
2022/05/18 14:05:01;;;;;;;0.00;0.00;;;;;;;;;;5042956;28;20074;-86
2022/05/18 14:07:30;;;;;;;0.10;0.10;;;;;;;;;;5042847;28;20044;-86
2022/05/18 14:10:00;;;;;;;0.10;0.10;;;;;;;;;;5042425;28;20036;-88
2022/05/18 14:12:27;;;;;;;0.10;0.10;;;;;;;;;;5042834;28;20075;-87
2022/05/18 14:14:54;;;;;;;0.10;0.10;;;;;;;;;;5043480;28;20036;-87
2022/05/18 14:17:23;;;;;;;0.10;0.10;;;;;;;;;;5027102;28;20045;-87
2022/05/18 14:19:53;;;;;;;0.00;0.00;;;;;;;;;;5043427;28;20048;-88
2022/05/18 14:22:23;;;;;;;0.10;0.10;;;;;;;;;;5043287;28;20138;-87
2022/05/18 14:24:57;;;;;;;0.00;0.00;;;;;;;;;;5059520;28;20033;-90
2022/05/18 14:27:26;;;;;;;0.10;0.10;;;;;;;;;;5042684;28;20405;-87
2022/05/18 14:29:58;;;;;;;0.05;0.05;;;;;;;;;;5042926;28;20505;-86
2022/05/18 14:32:29;;;;;;;0.00;0.00;;;;;;;;;;5059483;28;20036;-87
2022/05/18 14:35:04;;;;;;;0.10;0.10;;;;;;;;;;5041207;28;20057;-88
2022/05/18 14:37:35;;;;;;;0.00;0.00;;;;;;;;;;5042370;28;20047;-86
2022/05/18 14:40:03;;;;;;;0.00;0.00;;;;;;;;;;5042316;28;20032;-86
2022/05/18 14:42:31;;;;;;;0.00;0.00;;;;;;;;;;5041909;28;20041;-86
2022/05/18 14:45:05;;;;;;;0.10;0.10;;;;;;;;;;5041991;28;20040;-86
2022/05/18 14:47:31;;;;;;;0.00;0.00;;;;;;;;;;5042089;28;20040;-86
2022/05/18 14:50:05;;;;;;;0.10;0.10;;;;;;;;;;5032932;28;20052;-86
2022/05/18 14:52:34;;;;;;;0.10;0.10;;;;;;;;;;5043574;28;20135;-87
2022/05/18 14:55:08;;;;;;;0.05;0.05;;;;;;;;;;5042069;28;20062;-86
2022/05/18 14:57:36;;;;;;;0.08;0.08;;;;;;;;;;5041018;28;20413;-87
2022/05/18 15:00:08;;;;;;;0.00;0.00;;;;;;;;;;5042436;28;20047;-86
2022/05/18 15:02:36;;;;;;;0.00;0.00;;;;;;;;;;5042435;28;20043;-87
2022/05/18 15:05:04;;;;;;;0.08;0.08;;;;;;;;;;5042173;28;20505;-86
2022/05/18 15:07:38;;;;;;;0.10;0.10;;;;;;;;;;5042057;28;20554;-88
2022/05/18 15:10:14;;;;;;;0.10;0.10;;;;;;;;;;5042404;28;20043;-88
2022/05/18 15:12:41;;;;;;;0.00;0.00;;;;;;;;;;5058426;28;20151;-87
2022/05/18 15:15:20;;;;;;;0.00;0.00;;;;;;;;;;5022446;28;20041;-87
2022/05/18 15:17:59;;;;;;;0.00;0.00;;;;;;;;;;5041847;28;20043;-89
2022/05/18 15:20:37;;;;;;;0.00;0.00;;;;;;;;;;5042103;28;20037;-87